Flight Track Log - Related Links

Times and Time Zones

All times are in EDT time to prevent confusion due to time zone crossing. See the SWA1421 flight status page for this flight to view local times or setup timezone preferences in your user account.

Time Position Orientation Groundspeed Altitude Reporting Facility
EDT Latitude Longitude Course Direction KTS MPH feet Rate Location/Type
Sat 04:28:59 PM 39.1500 -76.7000 293° West 237 273 3,300  Level Potomac TRACON
Sat 04:29:59 PM 39.1667 -76.7833 284° West 272 313 4,900 2,231 Climbing Potomac TRACON
Sat 04:31:00 PM 39.2000 -76.8667 297° West 292 336 7,800 3,346 Climbing Potomac TRACON
Sat 04:33:27 PM 39.2972 -77.1444 294° West 348 400 16,500 3,454 Climbing Washington Center
Sat 04:34:00 PM 39.3811 -77.3434 293° West  Level FlightAware Approximate
Sat 04:34:25 PM 39.3417 -77.2661 295° West 365 420 19,600  Level Washington Center
Sat 04:35:27 PM 39.3875 -77.3986 294° West 389 448 22,500 2,852 Climbing Washington Center
Sat 04:36:27 PM 39.4356 -77.5317 295° West 400 460 25,400 2,644 Climbing Washington Center
Sat 04:38:24 PM 39.5247 -77.8139 292° West 417 480 30,300 2,644 Climbing Cleveland Center
Sat 04:39:24 PM 39.5700 -77.9575 292° West 423 487 33,200 1,850 Climbing Cleveland Center
Sat 04:40:24 PM 39.6083 -78.0933 290° West 423 487 34,000 400 Climbing Cleveland Center
Sat 04:41:24 PM 39.6511 -78.2347 291° West 423 487 34,000  Level Cleveland Center
Sat 04:42:24 PM 39.6933 -78.3736 292° West 423 487 34,000  Level Cleveland Center
Sat 04:43:24 PM 39.7358 -78.5153 291° West 423 487 34,000  Level Cleveland Center
Sat 04:44:24 PM 39.7756 -78.6544 290° West 423 487 34,000  Level Cleveland Center
Sat 04:45:24 PM 39.8069 -78.7861 287° West 423 487 34,000  Level Cleveland Center
Sat 04:46:24 PM 39.8486 -78.9256 291° West 423 487 34,000  Level Cleveland Center
Sat 04:47:24 PM 39.8944 -79.0706 292° West 428 493 34,000  Level Cleveland Center
Sat 04:48:24 PM 39.9339 -79.2131 290° West 428 493 34,000  Level Cleveland Center
Sat 04:49:24 PM 39.9750 -79.3531 291° West 428 493 34,000  Level Cleveland Center
Sat 04:50:24 PM 40.0389 -79.4822 303° West 428 493 34,000  Level Cleveland Center
Sat 04:51:24 PM 40.1047 -79.6086 304° West 428 493 34,000  Level Cleveland Center
Sat 04:52:24 PM 40.1703 -79.7381 304° West 428 493 34,000  Level Cleveland Center
Sat 04:53:24 PM 40.2358 -79.8678 304° West 433 498 34,000  Level Cleveland Center
Sat 04:54:24 PM 40.3011 -79.9950 304° West 433 498 34,000  Level Cleveland Center
Sat 04:55:24 PM 40.3644 -80.1308 301° West 433 498 34,000  Level Cleveland Center
Sat 04:56:24 PM 40.4294 -80.2586 304° West 433 498 34,000  Level Cleveland Center
Sat 04:57:24 PM 40.5047 -80.4000 305° West 433 498 34,000  Level Cleveland Center
Sat 04:58:24 PM 40.5694 -80.5311 303° West 433 498 34,000  Level Cleveland Center
Sat 04:59:24 PM 40.6300 -80.6625 301° West 433 498 34,000  Level Cleveland Center
Sat 05:00:24 PM 40.7006 -80.7914 306° West 428 493 34,000  Level Cleveland Center
Sat 05:01:24 PM 40.7650 -80.9231 303° West 428 493 34,000  Level Cleveland Center
Sat 05:02:24 PM 40.8269 -81.0522 302° West 433 498 34,000  Level Cleveland Center
Sat 05:03:24 PM 40.8911 -81.1900 302° West 433 498 34,000  Level Cleveland Center
Sat 05:04:24 PM 40.9550 -81.3228 303° West 433 498 34,000  Level Cleveland Center
Sat 05:05:24 PM 41.0186 -81.4556 302° West 433 498 34,000  Level Cleveland Center
Sat 05:06:24 PM 41.0781 -81.5775 303° West 433 498 34,000  Level Cleveland Center
Sat 05:07:24 PM 41.1517 -81.7247 304° West 438 504 34,000  Level Cleveland Center
Sat 05:08:24 PM 41.2444 -81.8231 321° Northwest 420 483 34,000  Level Cleveland Center
Sat 05:09:24 PM 41.3628 -81.8722 343° North 420 483 34,000 -200 Level Cleveland Center
Sat 05:10:24 PM 41.4747 -81.9300 339° North 430 495 33,600 -700 Descending Cleveland Center
Sat 05:11:24 PM 41.5908 -81.9825 341° North 440 506 32,600 -1,000 Descending Cleveland Center
Sat 05:12:24 PM 41.7028 -82.0350 341° North 440 506 31,600 -1,000 Descending Cleveland Center
Sat 05:13:24 PM 41.8167 -82.0903 340° North 435 501 30,600 -900 Descending Cleveland Center
Sat 05:14:24 PM 41.9139 -82.1372 340° North 421 484 29,800 -900 Descending Cleveland Center
Sat 05:15:24 PM 42.0217 -82.1903 340° North 416 479 28,800 -1,000 Descending Cleveland Center
Sat 05:16:24 PM 42.1292 -82.2433 340° North 416 479 27,800 -1,150 Descending Cleveland Center
Sat 05:17:24 PM 42.2514 -82.3028 340° North 410 472 26,500 -1,150 Descending Cleveland Center
Sat 05:18:24 PM 42.3547 -82.3533 340° North 410 472 25,500 -1,000 Descending Cleveland Center
Sat 05:19:24 PM 42.4583 -82.4042 340° North 405 466 24,500 -1,000 Descending Cleveland Center
Sat 05:20:24 PM 42.5597 -82.4519 341° North 400 460 23,500 -1,000 Descending Cleveland Center
Sat 05:21:24 PM 42.6631 -82.5031 340° North 395 455 22,500 -1,000 Descending Cleveland Center
Sat 05:22:24 PM 42.7622 -82.5542 339° North 384 442 21,500 -1,000 Descending Cleveland Center
Sat 05:23:24 PM 42.8594 -82.6028 340° North 384 442 20,500 -1,300 Descending Cleveland Center
Sat 05:24:24 PM 42.9414 -82.6761 327° Northwest 373 429 18,900 -1,750 Descending Cleveland Center
Sat 05:25:24 PM 42.9533 -82.8100 277° West 323 372 17,000 -2,300 Descending Cleveland Center
Sat 05:26:24 PM 42.9528 -82.9461 270° West 329 379 14,300 -2,750 Descending Cleveland Center
Sat 05:27:24 PM 42.9561 -83.0881 272° West 354 407 11,500 -2,100 Descending Cleveland Center
Sat 05:28:24 PM 42.9572 -83.2214 271° West 365 420 10,100 -1,100 Descending Cleveland Center
Sat 05:29:24 PM 42.9611 -83.3267 273° West 338 389 9,300 -1,100 Descending Cleveland Center
Sat 05:30:24 PM 42.9772 -83.4322 282° West 299 344 7,900 -1,450 Descending Cleveland Center
Sat 05:31:24 PM 42.9997 -83.5383 286° West 284 327 6,400 -1,100 Descending Cleveland Center
Sat 05:32:24 PM 43.0200 -83.6361 286° West 278 320 5,700 -850 Descending Cleveland Center
Sat 05:33:24 PM 43.0425 -83.7336 288° West 260 299 4,700 -850 Descending Cleveland Center
Sat 05:34:24 PM 43.0444 -83.8133 272° West 239 275 4,000 -700 Descending Cleveland Center
Sat 05:35:24 PM 43.0219 -83.8747 243° Southwest 187 215 3,300 -700 Descending Cleveland Center
Sat 05:37:00 PM 42.9654 -83.7437 150° Southeast  Level Estimated
Sat 05:44:00 PM 42.9654 -83.7437 150° Southeast  Level Estimated

Login

Don't have an account? Register now (free) for customized features, flight alerts, and more!